createdAt,value
2022-09-07T00:00:56.243Z,99.90
2022-09-07T00:03:25.694Z,99.90
2022-09-07T00:05:54.247Z,99.90
2022-09-07T00:08:25.610Z,99.90
2022-09-07T00:10:55.153Z,99.90
2022-09-07T00:13:23.847Z,99.90
2022-09-07T00:15:52.412Z,99.90
2022-09-07T00:18:20.897Z,99.90
2022-09-07T00:20:59.053Z,99.90
2022-09-07T00:23:27.741Z,99.90
2022-09-07T00:25:59.517Z,99.90
2022-09-07T00:28:27.488Z,99.90
2022-09-07T00:30:55.497Z,99.90
2022-09-07T00:33:24.033Z,99.90
2022-09-07T00:35:53.444Z,99.90
2022-09-07T00:38:21.595Z,99.90
2022-09-07T00:40:49.626Z,99.90
2022-09-07T00:43:29.319Z,99.90
2022-09-07T00:45:57.575Z,99.90
2022-09-07T00:48:28.827Z,99.90
2022-09-07T00:51:02.617Z,99.90
2022-09-07T00:53:34.051Z,99.90
2022-09-07T00:56:03.643Z,99.90
2022-09-07T00:58:32.505Z,99.90
2022-09-07T01:01:00.473Z,99.90
2022-09-07T01:03:32.035Z,99.90
2022-09-07T01:06:07.875Z,99.90
2022-09-07T01:08:37.093Z,99.90
2022-09-07T01:11:05.141Z,99.90
2022-09-07T01:13:33.650Z,99.90
2022-09-07T01:16:08.865Z,99.90
2022-09-07T01:18:42.786Z,99.90
2022-09-07T01:21:28.228Z,99.90
2022-09-07T01:24:35.994Z,99.90
2022-09-07T01:27:39.731Z,99.90
2022-09-07T01:30:11.017Z,99.90
2022-09-07T01:32:51.077Z,99.90
2022-09-07T01:35:27.848Z,99.90
2022-09-07T01:38:03.240Z,99.90
2022-09-07T01:40:39.642Z,99.90
2022-09-07T01:43:13.330Z,99.90
2022-09-07T01:45:44.223Z,99.90
2022-09-07T01:48:16.353Z,99.90
2022-09-07T01:50:48.978Z,99.90
2022-09-07T01:53:21.704Z,99.90
2022-09-07T01:55:53.099Z,99.90
2022-09-07T01:58:26.055Z,99.90
2022-09-07T02:00:59.526Z,99.90
2022-09-07T02:03:32.761Z,99.90
2022-09-07T02:06:03.636Z,99.90
2022-09-07T02:08:37.623Z,99.90
2022-09-07T02:11:11.222Z,99.90
2022-09-07T02:13:43.124Z,99.90
2022-09-07T02:16:16.310Z,99.90
2022-09-07T02:18:47.672Z,99.90
2022-09-07T02:21:18.724Z,99.90
2022-09-07T02:23:52.862Z,99.90
2022-09-07T02:26:23.383Z,99.90
2022-09-07T02:28:51.795Z,99.90
2022-09-07T02:31:21.569Z,99.90
2022-09-07T02:33:49.674Z,99.90
2022-09-07T02:36:21.183Z,99.90
2022-09-07T02:38:49.199Z,99.90
2022-09-07T02:41:35.362Z,99.90
2022-09-07T02:44:07.180Z,99.90
2022-09-07T02:46:56.414Z,99.90
2022-09-07T02:49:38.183Z,99.90
2022-09-07T02:52:15.948Z,99.90
2022-09-07T02:54:54.744Z,99.90
2022-09-07T02:57:31.323Z,99.90
2022-09-07T03:00:07.003Z,99.90
2022-09-07T03:02:50.529Z,99.90
2022-09-07T03:05:21.767Z,99.90
2022-09-07T03:07:55.602Z,99.90
2022-09-07T03:10:24.333Z,99.90
2022-09-07T03:12:52.758Z,99.90
2022-09-07T03:15:23.113Z,99.90
2022-09-07T03:17:52.845Z,99.90
2022-09-07T03:20:21.835Z,99.90
2022-09-07T03:22:52.086Z,99.90
2022-09-07T03:25:21.948Z,99.90
2022-09-07T03:27:49.979Z,99.90
2022-09-07T03:30:18.302Z,99.90
2022-09-07T03:32:47.337Z,99.90
2022-09-07T03:35:17.684Z,99.90
2022-09-07T03:37:45.715Z,99.90
2022-09-07T03:40:15.525Z,99.90
2022-09-07T03:42:44.309Z,99.90
2022-09-07T03:45:12.610Z,99.90
2022-09-07T03:47:41.105Z,99.90
2022-09-07T03:50:09.878Z,99.90
2022-09-07T03:52:41.859Z,99.90
2022-09-07T03:55:10.337Z,99.90
2022-09-07T03:57:39.077Z,99.90
2022-09-07T04:00:08.184Z,99.90
2022-09-07T04:02:36.229Z,99.90
2022-09-07T04:05:04.554Z,99.90
2022-09-07T04:07:32.515Z,99.90
2022-09-07T04:10:01.838Z,99.90
2022-09-07T04:12:29.826Z,99.90
2022-09-07T04:14:57.868Z,99.90
2022-09-07T04:17:25.858Z,99.90
2022-09-07T04:19:54.486Z,99.90
2022-09-07T04:22:22.469Z,99.90
2022-09-07T04:24:50.460Z,99.90
2022-09-07T04:27:19.827Z,99.90
2022-09-07T04:29:48.903Z,99.90
2022-09-07T04:32:16.886Z,99.90
2022-09-07T04:34:44.901Z,99.90
2022-09-07T04:37:12.974Z,99.90
2022-09-07T04:39:41.059Z,99.90
2022-09-07T04:42:09.111Z,99.90
2022-09-07T04:44:38.542Z,99.90
2022-09-07T04:47:07.172Z,99.90
2022-09-07T04:49:35.217Z,99.90
2022-09-07T04:52:03.573Z,99.90
2022-09-07T04:54:31.638Z,99.90
2022-09-07T04:56:59.605Z,99.90
2022-09-07T04:59:27.674Z,99.90
2022-09-07T05:01:57.051Z,99.90
2022-09-07T05:04:25.128Z,99.90
2022-09-07T05:06:54.541Z,99.90
2022-09-07T05:09:22.607Z,99.90
2022-09-07T05:11:50.851Z,99.90
2022-09-07T05:14:18.852Z,99.90
2022-09-07T05:16:46.918Z,99.90
2022-09-07T05:19:16.410Z,99.90
2022-09-07T05:21:44.750Z,99.90
2022-09-07T05:24:13.001Z,99.90
2022-09-07T05:26:40.971Z,99.90
2022-09-07T05:31:57.781Z,99.90
2022-09-07T05:36:56.068Z,99.90
2022-09-07T05:39:24.258Z,99.90
2022-09-07T05:41:52.259Z,99.90
2022-09-07T05:47:08.610Z,99.90
2022-09-07T05:49:38.316Z,99.90
2022-09-07T05:52:06.802Z,99.90
2022-09-07T05:54:34.899Z,99.90
2022-09-07T05:57:03.487Z,99.90
2022-09-07T05:59:31.553Z,99.90
2022-09-07T06:01:59.811Z,99.90
2022-09-07T06:04:27.915Z,99.90
2022-09-07T06:12:33.356Z,99.90
2022-09-07T06:15:01.550Z,99.90
2022-09-07T06:17:31.039Z,99.90
2022-09-07T06:19:59.041Z,99.90
2022-09-07T06:22:30.946Z,99.90
2022-09-07T06:24:59.747Z,99.90
2022-09-07T06:27:27.970Z,99.90
2022-09-07T06:29:56.062Z,99.90
2022-09-07T06:35:12.978Z,99.90
2022-09-07T06:37:42.769Z,99.90
2022-09-07T06:40:12.066Z,99.90
2022-09-07T06:42:40.570Z,99.90
2022-09-07T06:45:10.996Z,99.90
2022-09-07T06:47:39.653Z,99.90
2022-09-07T06:50:08.711Z,99.90
2022-09-07T06:55:27.779Z,99.90
2022-09-07T06:57:55.914Z,99.90
2022-09-07T07:00:24.141Z,99.90
2022-09-07T07:02:52.332Z,99.90
2022-09-07T07:05:20.510Z,99.90
2022-09-07T07:07:48.567Z,99.90
2022-09-07T07:10:19.767Z,99.90
2022-09-07T07:12:52.960Z,99.90
2022-09-07T07:15:21.049Z,99.90
2022-09-07T07:17:56.072Z,99.90
2022-09-07T07:20:27.397Z,99.90
2022-09-07T07:22:55.657Z,99.90
2022-09-07T07:25:24.652Z,99.90
2022-09-07T07:27:54.172Z,99.90
2022-09-07T07:30:22.738Z,99.90
2022-09-07T07:32:50.850Z,99.90
2022-09-07T07:35:18.864Z,99.90
2022-09-07T07:37:48.000Z,99.90
2022-09-07T07:40:17.913Z,99.90
2022-09-07T07:42:48.720Z,99.90
2022-09-07T07:48:06.564Z,99.90
2022-09-07T07:50:34.761Z,99.90
2022-09-07T07:55:51.382Z,99.90
2022-09-07T07:58:19.839Z,99.90
2022-09-07T08:00:57.328Z,99.90
2022-09-07T08:03:26.461Z,99.90
2022-09-07T08:05:54.865Z,99.90
2022-09-07T08:08:24.440Z,99.90
2022-09-07T08:10:52.960Z,99.90
2022-09-07T08:13:21.367Z,99.90
2022-09-07T08:15:50.946Z,99.90
2022-09-07T08:18:19.206Z,99.90
2022-09-07T08:20:47.166Z,99.90
2022-09-07T08:23:15.480Z,99.90
2022-09-07T08:25:51.789Z,99.90
2022-09-07T08:28:19.869Z,99.90
2022-09-07T08:30:47.861Z,99.90
2022-09-07T08:33:17.411Z,99.90
2022-09-07T08:35:56.261Z,99.90
2022-09-07T08:38:24.441Z,99.90
2022-09-07T08:40:52.505Z,99.90
2022-09-07T08:43:30.112Z,99.90
2022-09-07T08:46:04.736Z,99.90
2022-09-07T08:48:36.057Z,99.90
2022-09-07T08:51:12.418Z,99.90
2022-09-07T08:53:46.522Z,99.90
2022-09-07T08:56:19.799Z,99.90
2022-09-07T08:58:50.428Z,99.90
2022-09-07T09:01:36.677Z,99.90
2022-09-07T09:04:16.061Z,99.90
2022-09-07T09:06:53.467Z,99.90
2022-09-07T09:09:29.695Z,99.90
2022-09-07T09:12:09.269Z,99.90
2022-09-07T09:14:44.866Z,99.90
2022-09-07T09:17:29.986Z,99.90
2022-09-07T09:20:08.040Z,99.90
2022-09-07T09:22:36.382Z,99.90
2022-09-07T09:25:16.949Z,99.90
2022-09-07T09:27:44.920Z,99.90
2022-09-07T09:30:15.518Z,99.90
2022-09-07T09:32:44.920Z,99.90
2022-09-07T09:35:24.337Z,99.90
2022-09-07T09:37:52.251Z,99.90
2022-09-07T09:40:23.255Z,99.90
2022-09-07T09:43:03.994Z,99.60
2022-09-07T09:48:32.263Z,60.10
2022-09-07T09:53:57.079Z,34.70
2022-09-07T09:56:38.241Z,29.10
2022-09-07T10:05:29.609Z,21.20
2022-09-07T10:07:59.186Z,20.20
2022-09-07T10:10:28.595Z,18.90
2022-09-07T10:12:57.391Z,18.20
2022-09-07T10:15:40.191Z,17.80
2022-09-07T10:18:17.027Z,18.20
2022-09-07T10:20:44.952Z,18.10
2022-09-07T10:23:23.001Z,17.30
2022-09-07T10:25:51.108Z,17.00
2022-09-07T10:28:23.974Z,16.20
2022-09-07T10:31:09.986Z,15.60
2022-09-07T10:36:44.502Z,14.20
2022-09-07T10:39:19.190Z,14.10
2022-09-07T10:41:55.998Z,14.20
2022-09-07T10:44:37.352Z,15.40
2022-09-07T10:47:11.459Z,17.10
2022-09-07T10:50:21.860Z,19.00
2022-09-07T10:52:39.684Z,20.80
2022-09-07T10:55:14.618Z,20.60
2022-09-07T10:57:52.775Z,19.80
2022-09-07T11:00:22.899Z,18.50
2022-09-07T11:06:04.097Z,17.30
2022-09-07T11:14:29.501Z,20.20
2022-09-07T11:17:01.019Z,21.30
2022-09-07T11:19:38.358Z,22.60
2022-09-07T11:22:19.310Z,24.10
2022-09-07T11:27:45.441Z,27.40
2022-09-07T11:30:22.289Z,28.70
2022-09-07T11:32:59.016Z,30.00
2022-09-07T11:35:36.220Z,31.30
2022-09-07T11:38:14.384Z,32.60
2022-09-07T11:40:49.610Z,33.20
2022-09-07T11:43:23.723Z,33.50
2022-09-07T11:45:56.293Z,33.90
2022-09-07T11:48:31.976Z,34.90
2022-09-07T11:51:03.372Z,35.10
2022-09-07T11:53:34.982Z,35.10
2022-09-07T11:56:07.365Z,35.40
2022-09-07T11:58:52.196Z,35.20
2022-09-07T12:01:33.258Z,35.20
2022-09-07T12:04:29.886Z,35.40
2022-09-07T12:07:26.039Z,36.30
2022-09-07T12:10:30.668Z,37.30
2022-09-07T12:13:13.716Z,37.20
2022-09-07T12:15:51.755Z,37.50
2022-09-07T12:18:32.528Z,37.50
2022-09-07T12:21:00.541Z,37.30
2022-09-07T12:23:30.709Z,37.90
2022-09-07T12:26:44.222Z,38.00
2022-09-07T12:29:25.532Z,38.60
2022-09-07T12:31:58.777Z,39.00
2022-09-07T12:34:53.506Z,39.50
2022-09-07T12:37:45.297Z,39.60
2022-09-07T12:40:45.136Z,39.60
2022-09-07T12:43:34.919Z,39.70
2022-09-07T12:46:03.481Z,40.20
2022-09-07T12:48:46.592Z,40.40
2022-09-07T12:54:20.207Z,41.10
2022-09-07T12:59:55.416Z,41.00
2022-09-07T13:02:45.437Z,41.00
2022-09-07T13:05:25.135Z,40.80
2022-09-07T13:08:10.657Z,40.30
2022-09-07T13:10:40.458Z,39.50
2022-09-07T13:14:01.591Z,38.70
2022-09-07T13:16:29.074Z,38.00
2022-09-07T13:18:57.645Z,38.40
2022-09-07T13:21:50.001Z,38.80
2022-09-07T13:24:52.751Z,38.60
2022-09-07T13:27:46.703Z,38.20
2022-09-07T13:30:32.092Z,37.70
2022-09-07T13:33:37.063Z,37.70
2022-09-07T13:36:06.389Z,37.30
2022-09-07T13:38:37.433Z,36.60
2022-09-07T13:41:07.983Z,35.90
2022-09-07T13:43:36.961Z,35.60
2022-09-07T13:46:12.251Z,35.20
2022-09-07T13:48:47.188Z,34.80
2022-09-07T13:51:19.608Z,34.20
2022-09-07T13:54:01.421Z,33.90
2022-09-07T13:56:38.836Z,33.50
2022-09-07T13:59:18.115Z,33.10
2022-09-07T14:01:48.624Z,32.90
2022-09-07T14:04:23.633Z,32.60
2022-09-07T14:06:51.804Z,33.00
2022-09-07T14:09:22.750Z,33.00
2022-09-07T14:11:52.453Z,33.30
2022-09-07T14:14:24.997Z,33.50
2022-09-07T14:16:58.131Z,34.00
2022-09-07T14:19:31.079Z,34.50
2022-09-07T14:22:01.475Z,34.70
2022-09-07T14:24:36.791Z,34.50
2022-09-07T14:27:06.424Z,34.20
2022-09-07T14:29:36.696Z,34.10
2022-09-07T14:32:10.720Z,34.70
2022-09-07T14:34:39.019Z,34.90
2022-09-07T14:37:09.542Z,34.70
2022-09-07T14:39:40.926Z,34.70
2022-09-07T14:42:11.562Z,34.60
2022-09-07T14:44:42.943Z,34.80
2022-09-07T14:47:24.254Z,34.90
2022-09-07T14:49:53.196Z,34.80
2022-09-07T14:52:27.292Z,35.40
2022-09-07T14:54:56.659Z,35.80
2022-09-07T14:57:30.375Z,36.50
2022-09-07T14:59:58.860Z,36.40
2022-09-07T15:02:36.724Z,36.50
2022-09-07T15:05:23.422Z,36.40
2022-09-07T15:07:53.038Z,36.40
2022-09-07T15:10:36.866Z,35.90
2022-09-07T15:13:07.119Z,35.60
2022-09-07T15:15:37.395Z,35.50
2022-09-07T15:18:26.811Z,35.60
2022-09-07T15:20:54.719Z,35.80
2022-09-07T15:23:22.999Z,35.60
2022-09-07T15:25:54.146Z,35.60
2022-09-07T15:34:04.443Z,36.10
2022-09-07T15:36:32.373Z,35.60
2022-09-07T15:39:03.276Z,35.80
2022-09-07T15:41:34.682Z,35.20
2022-09-07T15:44:03.092Z,35.40
2022-09-07T15:46:31.114Z,35.50
2022-09-07T15:49:01.714Z,35.50
2022-09-07T15:54:20.643Z,35.80
2022-09-07T15:59:37.875Z,35.30
2022-09-07T16:03:04.465Z,35.40
2022-09-07T16:04:54.232Z,35.60
2022-09-07T16:07:22.768Z,33.90
2022-09-07T16:09:52.531Z,32.70
2022-09-07T16:15:12.753Z,32.60
2022-09-07T16:17:47.173Z,32.50
2022-09-07T16:20:16.314Z,32.80
2022-09-07T16:25:32.551Z,32.60
2022-09-07T16:28:01.940Z,32.80
2022-09-07T16:30:31.062Z,32.30
2022-09-07T16:32:59.183Z,32.40
2022-09-07T16:35:27.196Z,32.60
2022-09-07T16:40:42.946Z,32.50
2022-09-07T16:43:12.210Z,32.70
2022-09-07T16:48:27.952Z,32.90
2022-09-07T16:51:01.574Z,33.20
2022-09-07T16:53:30.507Z,33.40
2022-09-07T16:56:01.961Z,33.40
2022-09-07T16:58:36.293Z,33.60
2022-09-07T17:01:05.419Z,33.70
2022-09-07T17:03:33.803Z,33.90
2022-09-07T17:06:02.492Z,33.70
2022-09-07T17:08:30.807Z,33.70
2022-09-07T17:11:02.590Z,33.90
2022-09-07T17:13:33.417Z,34.00
2022-09-07T17:16:04.869Z,34.20
2022-09-07T17:21:21.745Z,34.90
2022-09-07T17:23:55.182Z,35.30
2022-09-07T17:26:26.912Z,35.80
2022-09-07T17:29:00.231Z,36.80
2022-09-07T17:34:19.863Z,39.00
2022-09-07T17:36:48.386Z,39.00
2022-09-07T17:39:18.563Z,39.60
2022-09-07T17:41:47.842Z,40.50
2022-09-07T17:44:17.210Z,41.00
2022-09-07T17:46:45.256Z,41.50
2022-09-07T17:49:16.128Z,41.90
2022-09-07T17:51:45.108Z,42.30
2022-09-07T17:54:15.557Z,42.90
2022-09-07T17:56:44.179Z,43.70
2022-09-07T18:02:01.533Z,44.80
2022-09-07T18:04:29.547Z,45.30
2022-09-07T18:06:57.680Z,46.00
2022-09-07T18:09:25.562Z,46.70
2022-09-07T18:11:53.547Z,47.30
2022-09-07T18:14:21.558Z,47.90
2022-09-07T18:16:50.630Z,48.60
2022-09-07T18:19:20.067Z,49.30
2022-09-07T18:21:49.139Z,50.40
2022-09-07T18:24:20.035Z,51.80
2022-09-07T18:26:51.549Z,53.20
2022-09-07T18:29:36.753Z,55.00
2022-09-07T18:32:09.539Z,57.20
2022-09-07T18:34:41.424Z,59.70
2022-09-07T18:37:09.677Z,62.50
2022-09-07T18:39:37.870Z,64.90
2022-09-07T18:42:07.616Z,67.40
2022-09-07T18:47:28.915Z,73.00
2022-09-07T18:49:59.114Z,75.80
2022-09-07T18:55:15.768Z,80.40
2022-09-07T18:57:43.732Z,82.80
2022-09-07T19:00:13.759Z,85.20
2022-09-07T19:02:41.785Z,87.60
2022-09-07T19:08:03.288Z,90.90
2022-09-07T19:10:33.809Z,91.90
2022-09-07T19:13:01.858Z,93.10
2022-09-07T19:15:31.614Z,94.20
2022-09-07T19:18:04.603Z,95.30
2022-09-07T19:20:34.938Z,96.30
2022-09-07T19:23:03.191Z,97.30
2022-09-07T19:25:31.107Z,98.10
2022-09-07T19:27:58.932Z,99.10
2022-09-07T19:30:27.873Z,99.90
2022-09-07T19:32:56.597Z,99.90
2022-09-07T19:35:26.510Z,99.90
2022-09-07T19:37:55.806Z,99.90
2022-09-07T19:40:23.731Z,99.90
2022-09-07T19:42:51.811Z,99.90
2022-09-07T19:45:19.657Z,99.90
2022-09-07T19:47:50.486Z,99.90
2022-09-07T19:50:19.780Z,99.90
2022-09-07T19:52:47.626Z,99.90
2022-09-07T19:55:17.419Z,99.90
2022-09-07T19:57:47.357Z,99.90
2022-09-07T20:00:15.838Z,99.90
2022-09-07T20:02:43.777Z,99.90
2022-09-07T20:05:14.526Z,99.90
2022-09-07T20:07:42.361Z,99.90
2022-09-07T20:10:10.660Z,99.90
2022-09-07T20:12:39.963Z,99.90
2022-09-07T20:15:09.035Z,99.90
2022-09-07T20:17:37.470Z,99.90
2022-09-07T20:20:06.483Z,99.90
2022-09-07T20:22:34.327Z,99.90
2022-09-07T20:25:02.163Z,99.90
2022-09-07T20:27:30.549Z,99.90
2022-09-07T20:29:59.788Z,99.90
2022-09-07T20:32:28.203Z,99.90
2022-09-07T20:34:56.327Z,99.90
2022-09-07T20:37:26.945Z,99.90
2022-09-07T20:39:55.479Z,99.90
2022-09-07T20:42:23.362Z,99.90
2022-09-07T20:44:51.209Z,99.90
2022-09-07T20:47:20.485Z,99.90
2022-09-07T20:49:48.424Z,99.90
2022-09-07T20:52:16.327Z,99.90
2022-09-07T20:54:44.155Z,99.90
2022-09-07T20:57:12.041Z,99.90
2022-09-07T20:59:39.889Z,99.90
2022-09-07T21:02:09.485Z,99.90
2022-09-07T21:04:38.749Z,99.90
2022-09-07T21:07:06.572Z,99.90
2022-09-07T21:09:34.396Z,99.90
2022-09-07T21:12:02.254Z,99.90
2022-09-07T21:14:30.095Z,99.90
2022-09-07T21:16:57.890Z,99.90
2022-09-07T21:19:25.731Z,99.90
2022-09-07T21:21:54.872Z,99.90
2022-09-07T21:24:24.832Z,99.90
2022-09-07T21:26:52.826Z,99.90
2022-09-07T21:29:23.274Z,99.90
2022-09-07T21:31:53.139Z,99.90
2022-09-07T21:34:21.710Z,99.90
2022-09-07T21:36:49.905Z,99.90
2022-09-07T21:39:20.743Z,99.90
2022-09-07T21:41:48.687Z,99.90
2022-09-07T21:44:17.206Z,99.90
2022-09-07T21:46:45.529Z,99.90
2022-09-07T21:49:13.662Z,99.90
2022-09-07T21:51:41.484Z,99.90
2022-09-07T21:54:09.844Z,99.90
2022-09-07T21:56:43.146Z,99.90
2022-09-07T21:59:13.894Z,99.90
2022-09-07T22:01:41.994Z,99.90
2022-09-07T22:04:09.977Z,99.90
2022-09-07T22:06:39.793Z,99.90
2022-09-07T22:09:07.754Z,99.90
2022-09-07T22:11:35.586Z,99.90
2022-09-07T22:14:06.027Z,99.90
2022-09-07T22:16:35.888Z,99.90
2022-09-07T22:19:03.900Z,99.90
2022-09-07T22:21:32.240Z,99.90
2022-09-07T22:24:01.705Z,99.90
2022-09-07T22:26:31.557Z,99.90
2022-09-07T22:29:00.286Z,99.90
2022-09-07T22:31:32.965Z,99.90
2022-09-07T22:34:02.208Z,99.90
2022-09-07T22:36:32.327Z,99.90
2022-09-07T22:39:02.148Z,99.90
2022-09-07T22:41:31.875Z,99.90
2022-09-07T22:44:00.219Z,99.90
2022-09-07T22:46:31.833Z,99.90
2022-09-07T22:49:00.374Z,99.90
2022-09-07T22:51:28.553Z,99.90
2022-09-07T22:53:56.992Z,99.90
2022-09-07T22:56:26.443Z,99.90
2022-09-07T22:58:56.320Z,99.90
2022-09-07T23:01:24.653Z,99.90
2022-09-07T23:03:54.083Z,99.90
2022-09-07T23:06:23.415Z,99.90
2022-09-07T23:08:51.568Z,99.90
2022-09-07T23:11:19.830Z,99.90
2022-09-07T23:13:51.489Z,99.90
2022-09-07T23:16:19.408Z,99.90
2022-09-07T23:18:47.321Z,99.90
2022-09-07T23:21:16.877Z,99.90
2022-09-07T23:23:44.913Z,99.90
2022-09-07T23:26:12.720Z,99.90
2022-09-07T23:28:40.545Z,99.90
2022-09-07T23:31:10.965Z,99.90
2022-09-07T23:33:38.905Z,99.90
2022-09-07T23:36:08.152Z,99.90
2022-09-07T23:38:37.433Z,99.90
2022-09-07T23:41:05.464Z,99.90
2022-09-07T23:43:33.685Z,99.90
2022-09-07T23:46:02.663Z,99.90
2022-09-07T23:48:30.591Z,99.90
2022-09-07T23:50:58.636Z,99.90
2022-09-07T23:53:26.777Z,99.90
2022-09-07T23:55:56.193Z,99.90
2022-09-07T23:58:24.685Z,99.90
